»·PEaware :: USC81 KEGE-KDEN

USC81 :: KEGE-KDEN

FLIGHT INFORMATION

Flight Status: Arrived
Operator: Unknown
More flights by this operator :: More flights under this callsign
Pilot: Andy P. (22680)
Aircraft: GATES LEARJET LEARJET 35/36
(LJ35)
More flights by this aircraft type
Origin: KEGE Eagle Co Regl
United States
Destination: KDEN Denver Intl
United States
More flights between these airports :: More routes between these airports
Route: +BEVVR1 BELGN SKARF FRNCH3
File this flight plan on PilotEdge
Remarks:
Altitude:
(Current/Filed)
23,000ft
Speed:
(Current/Filed)
465kts
Departed: 16-Dec-19 02:49 PM
Arrived: 16-Dec-19 03:20 PM
Distance/Time
Traveled:
105nm/0:30
Distance/Time
To Go:
Arrived

Flight Plot

Page will automatically refresh every two minutes.

Flight plan parsing failed; only flown route is shown


Map Options




Map Legend


Flown Route
Filed Route
Departure Airport
Arrival Airport
Navaid (VOR, NDB)
Fix

Horizontal Profiles

Position Reports

Time Latitude Longitude Heading Altitude Ground
Speed
16-Dec-19 14:29 39.641843 -106.905938 261 6518ft 0kts
16-Dec-19 14:29 39.641843 -106.905938 261 6518ft 0kts
16-Dec-19 14:30 39.641843 -106.905938 261 6518ft 0kts
16-Dec-19 14:32 39.641843 -106.905938 261 6518ft 0kts
16-Dec-19 14:32 39.641843 -106.905938 261 6518ft 0kts
16-Dec-19 14:33 39.641843 -106.905938 261 6518ft 0kts
16-Dec-19 14:35 39.641843 -106.905938 261 6518ft 0kts
16-Dec-19 14:35 39.641843 -106.905938 261 6518ft 0kts
16-Dec-19 14:36 39.641843 -106.905938 261 6518ft 0kts
16-Dec-19 14:37 39.641843 -106.905938 261 6518ft 0kts
16-Dec-19 14:38 39.641843 -106.905938 261 6518ft 0kts
16-Dec-19 14:39 39.641843 -106.905938 261 6518ft 0kts
16-Dec-19 14:40 39.641843 -106.905938 261 6518ft 0kts
16-Dec-19 14:41 39.641843 -106.905938 261 6518ft 0kts
16-Dec-19 14:42 39.641843 -106.905938 261 6518ft 0kts
16-Dec-19 14:43 39.641843 -106.905938 261 6518ft 0kts
16-Dec-19 14:44 39.641843 -106.905940 261 6518ft 0kts
16-Dec-19 14:45 39.641842 -106.905943 261 6518ft 0kts
16-Dec-19 14:46 39.642831 -106.905616 83 6518ft 14kts
16-Dec-19 14:47 39.643483 -106.900211 34 6518ft 10kts
16-Dec-19 14:48 39.642031 -106.923898 262 6899ft 185kts
16-Dec-19 14:49 39.600412 -106.973707 210 10770ft 232kts
16-Dec-19 14:50 39.580103 -107.047662 286 13972ft 243kts
16-Dec-19 14:51 39.626691 -107.107910 348 17221ft 253kts
16-Dec-19 14:52 39.678324 -107.052899 59 20397ft 265kts
16-Dec-19 14:53 39.715782 -106.974431 51 23311ft 253kts
16-Dec-19 14:54 39.763617 -106.885360 52 23312ft 340kts
16-Dec-19 14:55 39.822760 -106.774888 53 23292ft 405kts
16-Dec-19 14:56 39.890717 -106.647500 53 23280ft 446kts
16-Dec-19 14:57 39.962851 -106.511799 54 23281ft 462kts
16-Dec-19 14:58 40.032484 -106.380140 54 23277ft 426kts
16-Dec-19 14:59 40.098948 -106.254044 54 23277ft 420kts
16-Dec-19 15:00 40.165971 -106.126763 54 23255ft 429kts
16-Dec-19 15:01 40.233821 -105.997184 54 23240ft 433kts
16-Dec-19 15:02 40.301988 -105.866355 54 23192ft 435kts
16-Dec-19 15:03 40.369534 -105.734671 59 23195ft 435kts
16-Dec-19 15:04 40.379104 -105.580737 103 23249ft 433kts
16-Dec-19 15:05 40.355286 -105.446881 112 22148ft 334kts
16-Dec-19 15:06 40.301599 -105.350461 130 20403ft 334kts
16-Dec-19 15:07 40.241801 -105.256294 130 18635ft 337kts
16-Dec-19 15:08 40.183441 -105.164972 130 16913ft 317kts
16-Dec-19 15:09 40.128462 -105.079114 130 15955ft 309kts
16-Dec-19 15:10 40.072473 -104.991922 130 14967ft 317kts
16-Dec-19 15:11 40.016296 -104.904673 129 13973ft 319kts
16-Dec-19 15:12 39.957837 -104.821530 147 12968ft 302kts
16-Dec-19 15:13 39.881661 -104.808170 182 12049ft 271kts
16-Dec-19 15:14 39.810878 -104.807836 179 10462ft 257kts
16-Dec-19 15:15 39.756577 -104.768700 95 8458ft 227kts
16-Dec-19 15:16 39.759333 -104.700288 80 7513ft 176kts
16-Dec-19 15:17 39.783407 -104.663530 17 6462ft 124kts
16-Dec-19 15:18 39.818834 -104.660757 3 5662ft 120kts
16-Dec-19 15:19 39.839794 -104.660373 0 5434ft 30kts
16-Dec-19 15:20 39.839654 -104.663737 186 5434ft 16kts
16-Dec-19 15:21 39.838569 -104.665322 359 5434ft 0kts
16-Dec-19 15:22 39.838569 -104.665322 359 5434ft 0kts
16-Dec-19 15:23 39.838569 -104.665322 359 5434ft 0kts
16-Dec-19 15:24 39.838569 -104.665322 359 5434ft 0kts
16-Dec-19 15:25 39.838569 -104.665322 359 5434ft 0kts
16-Dec-19 15:26 39.838569 -104.665322 359 5434ft 0kts
16-Dec-19 15:27 39.838569 -104.665322 359 5434ft 0kts
16-Dec-19 15:28 39.838569 -104.665322 359 5434ft 0kts
16-Dec-19 15:29 39.838569 -104.665322 359 5434ft 0kts
16-Dec-19 15:30 39.838569 -104.665322 359 5434ft 0kts
16-Dec-19 15:31 39.838569 -104.665322 359 5434ft 0kts
16-Dec-19 15:32 39.838569 -104.665322 359 5434ft 0kts
16-Dec-19 15:33 39.838569 -104.665322 359 5434ft 0kts

Navigation Log

Ident Type
Flight plan parsing failed, navigation log unavailable